createdAt,value
2018-09-03T00:00:58.244Z,2.80
2018-09-03T00:03:27.718Z,3.00
2018-09-03T00:05:56.850Z,3.17
2018-09-03T00:08:25.995Z,3.00
2018-09-03T00:10:54.887Z,3.07
2018-09-03T00:13:23.760Z,2.90
2018-09-03T00:15:53.674Z,2.83
2018-09-03T00:18:36.172Z,3.00
2018-09-03T00:21:05.194Z,2.90
2018-09-03T00:23:34.092Z,3.20
2018-09-03T00:26:04.023Z,2.90
2018-09-03T00:28:37.456Z,2.90
2018-09-03T00:31:11.600Z,3.00
2018-09-03T00:33:45.872Z,3.13
2018-09-03T00:36:20.041Z,2.73
2018-09-03T00:39:02.403Z,3.10
2018-09-03T00:41:36.530Z,3.13
2018-09-03T00:44:10.966Z,3.07
2018-09-03T00:46:45.222Z,3.00
2018-09-03T00:49:20.961Z,3.07
2018-09-03T00:51:49.886Z,3.03
2018-09-03T00:54:18.844Z,3.30
2018-09-03T00:57:07.286Z,3.17
2018-09-03T00:59:36.206Z,2.97
2018-09-03T01:02:16.954Z,3.23
2018-09-03T01:05:04.192Z,3.20
2018-09-03T01:07:33.095Z,3.37
2018-09-03T01:10:01.997Z,3.67
2018-09-03T01:12:34.579Z,3.60
2018-09-03T01:15:03.547Z,3.17
2018-09-03T01:17:32.432Z,3.83
2018-09-03T01:20:07.400Z,3.30
2018-09-03T01:22:44.201Z,3.53
2018-09-03T01:25:13.118Z,3.60
2018-09-03T01:27:46.037Z,3.53
2018-09-03T01:30:14.929Z,3.93
2018-09-03T01:32:43.786Z,3.20
2018-09-03T01:35:12.693Z,3.40
2018-09-03T01:37:41.646Z,3.63
2018-09-03T01:40:14.195Z,3.60
2018-09-03T01:42:43.065Z,3.57
2018-09-03T01:45:12.082Z,3.50
2018-09-03T01:47:41.002Z,3.13
2018-09-03T01:50:09.926Z,3.40
2018-09-03T01:52:38.981Z,3.43
2018-09-03T01:55:07.866Z,3.40
2018-09-03T01:57:36.760Z,3.87
2018-09-03T02:00:09.474Z,3.20
2018-09-03T02:02:49.652Z,3.30
2018-09-03T02:05:18.553Z,3.83
2018-09-03T02:08:00.816Z,3.70
2018-09-03T02:10:44.794Z,3.27
2018-09-03T02:13:20.216Z,3.53
2018-09-03T02:18:49.409Z,3.43
2018-09-03T02:21:18.287Z,3.70
2018-09-03T02:23:47.183Z,3.40
2018-09-03T02:26:16.181Z,3.90
2018-09-03T02:28:46.119Z,3.90
2018-09-03T02:31:15.086Z,3.37
2018-09-03T02:33:44.090Z,3.50
2018-09-03T02:36:25.453Z,3.37
2018-09-03T02:41:48.180Z,3.83
2018-09-03T02:44:17.251Z,4.00
2018-09-03T02:46:46.122Z,3.93
2018-09-03T02:49:18.721Z,3.90
2018-09-03T02:51:47.612Z,3.90
2018-09-03T02:54:16.498Z,4.03
2018-09-03T02:56:49.206Z,3.80
2018-09-03T02:59:18.105Z,3.77
2018-09-03T03:01:47.019Z,3.50
2018-09-03T03:07:29.468Z,3.60
2018-09-03T03:10:10.942Z,3.90
2018-09-03T03:12:40.866Z,3.80
2018-09-03T03:15:09.767Z,4.07
2018-09-03T03:17:38.673Z,4.10
2018-09-03T03:20:11.063Z,3.70
2018-09-03T03:22:41.998Z,5.23
2018-09-03T03:25:18.267Z,4.20
2018-09-03T03:27:54.926Z,3.83
2018-09-03T03:30:23.879Z,4.13
2018-09-03T03:32:52.710Z,3.80
2018-09-03T03:35:21.843Z,3.87
2018-09-03T03:37:56.177Z,3.20
2018-09-03T03:40:41.647Z,3.83
2018-09-03T03:43:10.570Z,3.53
2018-09-03T03:45:39.438Z,3.63
2018-09-03T03:48:25.638Z,4.10
2018-09-03T03:50:54.531Z,3.67
2018-09-03T03:53:23.409Z,3.80
2018-09-03T03:55:56.045Z,3.60
2018-09-03T03:58:28.836Z,3.73
2018-09-03T04:00:57.733Z,3.83
2018-09-03T04:03:41.129Z,3.77
2018-09-03T04:06:14.843Z,3.87
2018-09-03T04:09:00.614Z,3.60
2018-09-03T04:11:29.529Z,4.00
2018-09-03T04:14:04.621Z,3.63
2018-09-03T04:16:36.813Z,4.17
2018-09-03T04:19:09.411Z,3.50
2018-09-03T04:21:40.332Z,4.00
2018-09-03T04:24:14.037Z,3.80
2018-09-03T04:26:50.383Z,3.93
2018-09-03T04:29:37.416Z,4.37
2018-09-03T04:32:23.319Z,3.30
2018-09-03T04:34:57.863Z,3.90
2018-09-03T04:37:27.774Z,3.93
2018-09-03T04:39:58.721Z,3.80
2018-09-03T04:42:27.680Z,4.53
2018-09-03T04:44:58.681Z,3.83
2018-09-03T04:47:31.829Z,4.07
2018-09-03T04:50:01.768Z,4.20
2018-09-03T04:52:30.724Z,4.47
2018-09-03T04:54:59.602Z,5.23
2018-09-03T04:57:33.290Z,4.33
2018-09-03T05:00:09.271Z,4.27
2018-09-03T05:02:41.567Z,3.90
2018-09-03T05:05:10.599Z,4.90
2018-09-03T05:07:39.621Z,4.27
2018-09-03T05:10:08.515Z,4.97
2018-09-03T05:12:43.997Z,4.60
2018-09-03T05:15:12.930Z,4.20
2018-09-03T05:17:54.772Z,4.20
2018-09-03T05:20:23.744Z,4.33
2018-09-03T05:25:49.610Z,4.93
2018-09-03T05:28:35.260Z,5.00
2018-09-03T05:31:14.773Z,4.50
2018-09-03T05:33:49.567Z,5.03
2018-09-03T05:36:19.477Z,5.20
2018-09-03T05:39:01.333Z,5.00
2018-09-03T05:41:44.043Z,4.77
2018-09-03T05:44:14.036Z,4.93
2018-09-03T05:46:47.584Z,5.20
2018-09-03T05:49:36.321Z,5.10
2018-09-03T05:52:17.358Z,5.47
2018-09-03T05:54:48.273Z,5.30
2018-09-03T05:57:17.230Z,5.63
2018-09-03T05:59:46.125Z,4.90
2018-09-03T06:02:15.014Z,5.10
2018-09-03T06:04:43.950Z,5.30
2018-09-03T06:07:12.871Z,5.00
2018-09-03T06:09:51.736Z,4.90
2018-09-03T06:12:28.344Z,5.70
2018-09-03T06:15:07.212Z,5.50
2018-09-03T06:17:41.399Z,5.47
2018-09-03T06:20:22.633Z,5.20
2018-09-03T06:22:51.647Z,5.93
2018-09-03T06:28:14.791Z,6.70
2018-09-03T06:30:43.711Z,6.43
2018-09-03T06:33:12.709Z,6.40
2018-09-03T06:35:51.223Z,7.57
2018-09-03T06:38:25.944Z,6.50
2018-09-03T06:40:55.109Z,6.87
2018-09-03T06:43:24.417Z,6.60
2018-09-03T06:45:53.317Z,7.53
2018-09-03T06:48:33.064Z,7.10
2018-09-03T06:54:09.555Z,7.43
2018-09-03T06:56:44.380Z,8.03
2018-09-03T06:59:15.371Z,7.77
2018-09-03T07:01:44.273Z,7.63
2018-09-03T07:04:13.161Z,7.77
2018-09-03T07:06:42.165Z,8.33
2018-09-03T07:09:13.048Z,7.93
2018-09-03T07:11:54.118Z,6.87
2018-09-03T07:14:23.109Z,8.03
2018-09-03T07:16:59.219Z,7.83
2018-09-03T07:19:28.348Z,7.37
2018-09-03T07:22:01.041Z,7.60
2018-09-03T07:24:34.106Z,7.73
2018-09-03T07:27:03.014Z,8.57
2018-09-03T07:29:35.462Z,7.90
2018-09-03T07:32:25.153Z,8.10
2018-09-03T07:35:01.185Z,8.33
2018-09-03T07:37:35.771Z,7.70
2018-09-03T07:40:04.963Z,8.53
2018-09-03T07:42:45.471Z,7.73
2018-09-03T07:45:14.366Z,9.40
2018-09-03T07:47:43.326Z,10.90
2018-09-03T07:50:12.234Z,9.90
2018-09-03T07:52:54.798Z,9.13
2018-09-03T07:55:25.770Z,8.77
2018-09-03T07:58:01.933Z,8.93
2018-09-03T08:00:37.721Z,8.63
2018-09-03T08:03:06.836Z,8.80
2018-09-03T08:05:35.737Z,8.87
2018-09-03T08:08:10.613Z,8.93
2018-09-03T08:10:39.587Z,10.00
2018-09-03T08:13:09.551Z,9.33
2018-09-03T08:15:38.457Z,8.47
2018-09-03T08:18:09.469Z,7.93
2018-09-03T08:20:38.421Z,8.13
2018-09-03T08:23:11.606Z,8.67
2018-09-03T08:25:45.440Z,9.30
2018-09-03T08:28:14.542Z,8.63
2018-09-03T08:30:49.226Z,9.83
2018-09-03T08:33:36.436Z,9.27
2018-09-03T08:36:07.442Z,8.73
2018-09-03T08:38:48.154Z,8.60
2018-09-03T08:41:24.826Z,9.67
2018-09-03T08:43:54.947Z,8.93
2018-09-03T08:46:23.825Z,9.30
2018-09-03T08:49:02.387Z,8.77
2018-09-03T08:51:34.781Z,9.40
2018-09-03T08:54:03.787Z,9.93
2018-09-03T08:56:39.405Z,9.93
2018-09-03T08:59:10.318Z,10.23
2018-09-03T09:01:42.619Z,10.47
2018-09-03T09:04:13.529Z,11.03
2018-09-03T09:06:59.027Z,9.50
2018-09-03T09:09:35.396Z,9.87
2018-09-03T09:12:04.444Z,10.13
2018-09-03T09:14:33.362Z,9.23
2018-09-03T09:17:18.814Z,9.93
2018-09-03T09:19:47.811Z,9.83
2018-09-03T09:22:22.968Z,10.00
2018-09-03T09:27:51.205Z,11.27
2018-09-03T09:30:20.145Z,10.90
2018-09-03T09:32:58.700Z,10.83
2018-09-03T09:35:27.957Z,11.47
2018-09-03T09:38:02.814Z,10.57
2018-09-03T09:40:31.837Z,11.10
2018-09-03T09:43:00.808Z,10.93
2018-09-03T09:45:33.005Z,11.20
2018-09-03T09:48:02.123Z,10.97
2018-09-03T09:50:34.442Z,10.73
2018-09-03T09:53:03.419Z,11.70
2018-09-03T09:55:32.390Z,10.70
2018-09-03T09:58:05.828Z,10.73
2018-09-03T10:00:42.041Z,10.77
2018-09-03T10:03:11.021Z,11.47
2018-09-03T10:05:39.988Z,10.47
2018-09-03T10:08:15.630Z,9.77
2018-09-03T10:10:48.196Z,11.70
2018-09-03T10:13:21.070Z,10.97
2018-09-03T10:15:55.925Z,10.73
2018-09-03T10:18:39.545Z,10.30
2018-09-03T10:21:09.741Z,9.90
2018-09-03T10:23:43.250Z,9.20
2018-09-03T10:26:24.997Z,10.33
2018-09-03T10:29:01.177Z,9.63
2018-09-03T10:31:33.488Z,11.50
2018-09-03T10:34:04.513Z,8.97
2018-09-03T10:36:33.460Z,10.53
2018-09-03T10:39:02.459Z,9.07
2018-09-03T10:41:35.269Z,9.23
2018-09-03T10:44:04.274Z,9.20
2018-09-03T10:46:40.168Z,8.43
2018-09-03T10:49:09.212Z,8.80
2018-09-03T10:51:38.173Z,8.83
2018-09-03T10:54:09.189Z,8.13
2018-09-03T10:56:38.191Z,9.83
2018-09-03T10:59:08.289Z,10.03
2018-09-03T11:01:37.753Z,9.03
2018-09-03T11:04:10.159Z,9.00
2018-09-03T11:06:42.574Z,8.30
2018-09-03T11:09:12.331Z,8.63
2018-09-03T11:11:43.351Z,8.80
2018-09-03T11:14:16.569Z,10.13
2018-09-03T11:16:50.439Z,8.77
2018-09-03T11:19:33.094Z,9.27
2018-09-03T11:22:02.004Z,8.33
2018-09-03T11:24:31.043Z,8.23
2018-09-03T11:27:03.964Z,8.37
2018-09-03T11:29:34.935Z,9.73
2018-09-03T11:32:11.817Z,12.50
2018-09-03T11:34:40.861Z,9.93
2018-09-03T11:40:03.887Z,11.60
2018-09-03T11:42:32.915Z,11.30
2018-09-03T11:45:12.632Z,13.03
2018-09-03T11:47:43.835Z,12.97
2018-09-03T11:50:14.054Z,14.03
2018-09-03T11:53:06.697Z,16.07
2018-09-03T11:55:35.619Z,17.03
2018-09-03T11:58:06.926Z,15.37
2018-09-03T12:00:41.399Z,14.60
2018-09-03T12:03:10.381Z,17.03
2018-09-03T12:05:39.392Z,16.90
2018-09-03T12:08:12.397Z,16.57
2018-09-03T12:10:41.382Z,16.47
2018-09-03T12:13:15.001Z,17.63
2018-09-03T12:16:24.323Z,20.10
2018-09-03T12:19:04.331Z,17.13
2018-09-03T12:21:36.577Z,18.67
2018-09-03T12:24:05.635Z,23.17
2018-09-03T12:26:36.549Z,19.10
2018-09-03T12:29:08.815Z,23.30
2018-09-03T12:31:38.386Z,19.23
2018-09-03T12:34:07.953Z,22.17
2018-09-03T12:36:37.519Z,22.53
2018-09-03T12:39:09.870Z,21.67
2018-09-03T12:41:44.162Z,19.70
2018-09-03T12:44:16.880Z,22.10
2018-09-03T12:46:51.016Z,21.70
2018-09-03T12:49:19.923Z,22.10
2018-09-03T12:51:48.828Z,20.57
2018-09-03T12:54:19.722Z,20.23
2018-09-03T12:56:48.606Z,24.27
2018-09-03T12:59:21.718Z,21.83
2018-09-03T13:01:51.607Z,22.27
2018-09-03T13:04:20.546Z,18.70
2018-09-03T13:06:49.408Z,19.23
2018-09-03T13:09:19.344Z,22.43
2018-09-03T13:11:48.293Z,22.73
2018-09-03T13:14:23.770Z,21.50
2018-09-03T13:16:52.764Z,19.63
2018-09-03T13:19:23.721Z,25.70
2018-09-03T13:21:52.646Z,21.63
2018-09-03T13:24:31.070Z,26.50
2018-09-03T13:27:04.197Z,22.07
2018-09-03T13:29:38.935Z,21.03
2018-09-03T13:32:07.872Z,18.90
2018-09-03T13:34:36.833Z,23.77
2018-09-03T13:37:06.834Z,21.03
2018-09-03T13:39:35.789Z,23.57
2018-09-03T13:42:04.843Z,28.73
2018-09-03T13:44:33.674Z,25.27
2018-09-03T13:47:02.587Z,29.07
2018-09-03T13:49:33.956Z,28.70
2018-09-03T13:52:03.037Z,25.63
2018-09-03T13:54:36.860Z,22.43
2018-09-03T13:57:06.441Z,24.00
2018-09-03T13:59:36.036Z,28.67
2018-09-03T14:02:10.071Z,27.80
2018-09-03T14:04:39.336Z,29.17
2018-09-03T14:07:08.248Z,28.07
2018-09-03T14:09:38.275Z,24.63
2018-09-03T14:12:09.084Z,22.63
2018-09-03T14:14:46.348Z,21.40
2018-09-03T14:17:19.635Z,22.80
2018-09-03T14:19:50.724Z,24.00
2018-09-03T14:22:24.357Z,23.37
2018-09-03T14:27:46.671Z,21.23
2018-09-03T14:30:15.615Z,21.83
2018-09-03T14:32:46.972Z,18.63
2018-09-03T14:35:17.895Z,17.40
2018-09-03T14:37:46.789Z,17.27
2018-09-03T14:40:16.893Z,17.47
2018-09-03T14:42:51.366Z,19.73
2018-09-03T14:45:21.259Z,22.03
2018-09-03T14:47:50.125Z,22.67
2018-09-03T14:50:23.243Z,25.47
2018-09-03T14:53:03.350Z,22.87
2018-09-03T14:55:34.332Z,23.07
2018-09-03T14:58:04.290Z,23.03
2018-09-03T15:00:39.306Z,22.53
2018-09-03T15:03:08.287Z,20.87
2018-09-03T15:05:38.246Z,25.37
2018-09-03T15:08:09.284Z,23.67
2018-09-03T15:10:41.315Z,24.17
2018-09-03T15:13:13.974Z,22.13
2018-09-03T15:15:48.749Z,19.67
2018-09-03T15:18:19.658Z,22.60
2018-09-03T15:20:52.594Z,21.97
2018-09-03T15:23:21.616Z,21.60
2018-09-03T15:25:56.715Z,27.47
2018-09-03T15:28:29.021Z,25.40
2018-09-03T15:31:00.228Z,23.40
2018-09-03T15:33:31.360Z,21.30
2018-09-03T15:36:00.464Z,19.63
2018-09-03T15:38:30.562Z,21.03
2018-09-03T15:41:01.641Z,25.20
2018-09-03T15:43:34.441Z,23.47
2018-09-03T15:46:06.298Z,23.93
2018-09-03T15:48:41.539Z,24.63
2018-09-03T15:51:12.579Z,30.13
2018-09-03T15:53:47.955Z,34.17
2018-09-03T15:56:23.695Z,35.70
2018-09-03T15:58:57.457Z,34.23
2018-09-03T16:01:37.823Z,36.50
2018-09-03T16:04:06.952Z,38.33
2018-09-03T16:06:36.376Z,37.43
2018-09-03T16:09:08.134Z,36.10
2018-09-03T16:11:41.480Z,34.67
2018-09-03T16:14:10.465Z,32.80
2018-09-03T16:16:45.304Z,35.80
2018-09-03T16:19:14.291Z,38.87
2018-09-03T16:21:44.256Z,35.07
2018-09-03T16:24:16.390Z,32.03
2018-09-03T16:26:52.569Z,34.10
2018-09-03T16:29:21.585Z,38.80
2018-09-03T16:32:00.063Z,35.73
2018-09-03T16:34:34.473Z,33.27
2018-09-03T16:37:06.749Z,32.13
2018-09-03T16:39:35.755Z,35.97
2018-09-03T16:42:06.873Z,34.87
2018-09-03T16:44:36.814Z,31.17
2018-09-03T16:47:06.952Z,29.90
2018-09-03T16:49:42.079Z,29.50
2018-09-03T16:52:15.394Z,29.27
2018-09-03T16:54:51.526Z,30.93
2018-09-03T16:57:20.596Z,28.67
2018-09-03T16:59:49.467Z,28.50
2018-09-03T17:02:31.019Z,28.53
2018-09-03T17:05:08.064Z,29.10
2018-09-03T17:07:39.138Z,28.33
2018-09-03T17:10:09.909Z,29.57
2018-09-03T17:12:39.916Z,28.20
2018-09-03T17:15:09.866Z,30.57
2018-09-03T17:17:39.841Z,29.00
2018-09-03T17:20:13.481Z,28.47
2018-09-03T17:22:43.422Z,26.40
2018-09-03T17:25:16.076Z,30.07
2018-09-03T17:27:58.680Z,30.00
2018-09-03T17:30:28.631Z,28.43
2018-09-03T17:33:07.998Z,30.03
2018-09-03T17:35:43.617Z,30.73
2018-09-03T17:38:15.874Z,30.00
2018-09-03T17:40:46.836Z,29.27
2018-09-03T17:43:15.876Z,31.77
2018-09-03T17:45:44.875Z,30.30
2018-09-03T17:48:16.396Z,29.13
2018-09-03T17:50:45.492Z,30.77
2018-09-03T17:53:14.455Z,30.47
2018-09-03T17:55:53.292Z,32.67
2018-09-03T17:58:30.084Z,30.37
2018-09-03T18:01:00.536Z,30.83
2018-09-03T18:03:29.426Z,27.40
2018-09-03T18:05:58.389Z,27.17
2018-09-03T18:08:32.834Z,26.70
2018-09-03T18:11:01.887Z,26.47
2018-09-03T18:13:38.021Z,25.37
2018-09-03T18:16:07.088Z,25.43
2018-09-03T18:18:39.889Z,25.73
2018-09-03T18:21:08.924Z,25.73
2018-09-03T18:23:39.862Z,25.50
2018-09-03T18:26:12.156Z,28.07
2018-09-03T18:28:41.093Z,26.43
2018-09-03T18:31:11.031Z,25.20
2018-09-03T18:33:43.368Z,27.50
2018-09-03T18:36:12.252Z,26.03
2018-09-03T18:38:49.373Z,26.37
2018-09-03T18:41:19.399Z,27.33
2018-09-03T18:43:52.617Z,26.00
2018-09-03T18:46:31.919Z,26.03
2018-09-03T18:49:01.393Z,26.43
2018-09-03T18:51:37.731Z,26.10
2018-09-03T18:54:06.668Z,25.87
2018-09-03T18:56:36.680Z,24.93
2018-09-03T18:59:07.784Z,24.53
2018-09-03T19:01:36.963Z,25.90
2018-09-03T19:04:09.467Z,25.60
2018-09-03T19:06:43.808Z,27.43
2018-09-03T19:09:12.819Z,24.13
2018-09-03T19:11:42.849Z,26.00
2018-09-03T19:14:13.053Z,25.73
2018-09-03T19:16:43.003Z,24.27
2018-09-03T19:19:15.178Z,24.27
2018-09-03T19:21:50.315Z,24.77
2018-09-03T19:24:21.462Z,23.50
2018-09-03T19:26:50.690Z,23.83
2018-09-03T19:29:25.145Z,24.30
2018-09-03T19:31:59.786Z,24.33
2018-09-03T19:34:28.924Z,24.83
2018-09-03T19:36:57.875Z,24.13
2018-09-03T19:39:26.856Z,23.33
2018-09-03T19:42:09.860Z,22.77
2018-09-03T19:44:40.875Z,24.17
2018-09-03T19:47:17.927Z,23.40
2018-09-03T19:49:48.798Z,23.20
2018-09-03T19:52:18.835Z,23.87
2018-09-03T19:54:48.856Z,23.67
2018-09-03T19:57:34.313Z,23.60
2018-09-03T20:00:03.228Z,23.77
2018-09-03T20:02:32.373Z,23.13
2018-09-03T20:05:20.541Z,23.40
2018-09-03T20:07:49.644Z,23.20
2018-09-03T20:10:19.661Z,22.77
2018-09-03T20:12:49.745Z,24.67
2018-09-03T20:15:27.785Z,22.87
2018-09-03T20:18:06.548Z,22.57
2018-09-03T20:23:39.747Z,22.33
2018-09-03T20:26:08.539Z,21.57
2018-09-03T20:28:40.703Z,21.87
2018-09-03T20:31:26.267Z,21.40
2018-09-03T20:33:59.956Z,22.40
2018-09-03T20:36:41.537Z,22.37
2018-09-03T20:39:10.593Z,22.87
2018-09-03T20:41:40.591Z,23.43
2018-09-03T20:44:16.033Z,23.50
2018-09-03T20:46:45.281Z,22.27
2018-09-03T20:49:17.915Z,23.23
2018-09-03T20:51:58.156Z,23.80
2018-09-03T20:54:28.242Z,23.03
2018-09-03T20:56:57.153Z,23.20
2018-09-03T20:59:34.069Z,23.83
2018-09-03T21:02:09.769Z,23.70
2018-09-03T21:05:01.919Z,23.77
2018-09-03T21:10:30.659Z,24.77
2018-09-03T21:13:00.822Z,24.20
2018-09-03T21:15:29.819Z,23.47
2018-09-03T21:18:17.473Z,24.23
2018-09-03T21:20:46.547Z,23.40
2018-09-03T21:23:25.510Z,24.83
2018-09-03T21:26:00.515Z,24.50
2018-09-03T21:28:33.484Z,24.90
2018-09-03T21:33:59.514Z,25.93
2018-09-03T21:36:39.932Z,25.10
2018-09-03T21:39:23.091Z,25.67
2018-09-03T21:41:52.185Z,24.87
2018-09-03T21:44:37.228Z,24.07
2018-09-03T21:47:13.493Z,24.87
2018-09-03T21:49:46.113Z,25.53
2018-09-03T21:52:28.333Z,25.07
2018-09-03T21:55:12.210Z,25.50
2018-09-03T21:57:41.236Z,25.93
2018-09-03T22:00:14.071Z,27.43
2018-09-03T22:02:49.016Z,27.27
2018-09-03T22:05:18.253Z,25.67
2018-09-03T22:07:51.961Z,27.07
2018-09-03T22:10:27.122Z,26.80
2018-09-03T22:12:56.279Z,26.70
2018-09-03T22:15:40.484Z,26.63
2018-09-03T22:18:21.802Z,26.67
2018-09-03T22:21:07.114Z,26.67
2018-09-03T22:23:41.715Z,26.67
2018-09-03T22:26:10.975Z,28.03
2018-09-03T22:28:40.020Z,28.27
2018-09-03T22:31:11.232Z,28.80
2018-09-03T22:33:45.866Z,26.67
2018-09-03T22:36:27.078Z,28.47
2018-09-03T22:39:06.224Z,27.03
2018-09-03T22:41:43.217Z,27.70
2018-09-03T22:44:16.264Z,28.20
2018-09-03T22:46:45.401Z,26.83
2018-09-03T22:49:17.753Z,27.07
2018-09-03T22:51:56.994Z,28.50
2018-09-03T22:54:26.027Z,28.20
2018-09-03T22:56:57.507Z,28.83
2018-09-03T22:59:26.392Z,28.80
2018-09-03T23:02:05.648Z,29.83
2018-09-03T23:04:47.688Z,30.50
2018-09-03T23:07:20.883Z,30.33
2018-09-03T23:09:53.204Z,30.40
2018-09-03T23:12:22.317Z,30.37
2018-09-03T23:14:55.762Z,31.27
2018-09-03T23:17:26.962Z,31.47
2018-09-03T23:19:57.070Z,30.60
2018-09-03T23:22:26.314Z,30.90
2018-09-03T23:24:55.440Z,30.13
2018-09-03T23:27:34.017Z,30.40
2018-09-03T23:30:06.256Z,31.50
2018-09-03T23:32:51.648Z,31.40
2018-09-03T23:35:27.877Z,32.40
2018-09-03T23:40:57.584Z,33.17
2018-09-03T23:43:26.735Z,34.03
2018-09-03T23:45:59.621Z,33.17
2018-09-03T23:48:28.715Z,32.90
2018-09-03T23:50:58.716Z,34.30
2018-09-03T23:53:27.590Z,34.73
2018-09-03T23:55:56.467Z,33.87
2018-09-03T23:58:25.365Z,35.77
